sensor_id;sensor_type;location;lat;lon;timestamp;pressure;altitude;pressure_sealevel;temperature;humidity
84116;BME280;74211;52.234;9.860;2024-02-04T00:01:35;101394.16;;;9.58;78.77
84116;BME280;74211;52.234;9.860;2024-02-04T00:04:05;101382.28;;;9.55;78.46
84116;BME280;74211;52.234;9.860;2024-02-04T00:06:36;101394.97;;;9.58;78.71
84116;BME280;74211;52.234;9.860;2024-02-04T00:09:08;101384.56;;;9.58;78.78
84116;BME280;74211;52.234;9.860;2024-02-04T00:11:39;101383.09;;;9.56;78.81
84116;BME280;74211;52.234;9.860;2024-02-04T00:14:09;101387.00;;;9.52;78.53
84116;BME280;74211;52.234;9.860;2024-02-04T00:16:39;101390.09;;;9.55;78.25
84116;BME280;74211;52.234;9.860;2024-02-04T00:19:09;101344.06;;;9.23;77.87
84116;BME280;74211;52.234;9.860;2024-02-04T00:21:39;101382.28;;;9.55;77.67
84116;BME280;74211;52.234;9.860;2024-02-04T00:24:12;101373.97;;;9.52;77.98
84116;BME280;74211;52.234;9.860;2024-02-04T00:26:42;101384.88;;;9.47;77.91
84116;BME280;74211;52.234;9.860;2024-02-04T00:29:12;101357.38;;;9.36;78.17
84116;BME280;74211;52.234;9.860;2024-02-04T00:31:42;101364.53;;;9.34;78.63
84116;BME280;74211;52.234;9.860;2024-02-04T00:34:12;101386.03;;;9.36;78.82
84116;BME280;74211;52.234;9.860;2024-02-04T00:36:42;101374.97;;;9.34;78.72
84116;BME280;74211;52.234;9.860;2024-02-04T00:39:15;101365.19;;;9.28;79.18
84116;BME280;74211;52.234;9.860;2024-02-04T00:41:45;101357.38;;;9.20;79.35
84116;BME280;74211;52.234;9.860;2024-02-04T00:44:15;101356.72;;;9.10;79.71
84116;BME280;74211;52.234;9.860;2024-02-04T00:46:45;101356.09;;;9.08;79.66
84116;BME280;74211;52.234;9.860;2024-02-04T00:49:15;101351.53;;;9.02;79.68
84116;BME280;74211;52.234;9.860;2024-02-04T00:51:45;101333.28;;;8.94;79.83
84116;BME280;74211;52.234;9.860;2024-02-04T00:54:19;101332.47;;;8.93;79.63
84116;BME280;74211;52.234;9.860;2024-02-04T00:56:49;101332.97;;;8.89;79.10
84116;BME280;74211;52.234;9.860;2024-02-04T00:59:19;101336.22;;;8.91;79.13
84116;BME280;74211;52.234;9.860;2024-02-04T01:01:49;101331.66;;;8.93;78.86
84116;BME280;74211;52.234;9.860;2024-02-04T01:04:19;101327.28;;;8.93;78.90
84116;BME280;74211;52.234;9.860;2024-02-04T01:06:50;101329.72;;;8.95;78.37
84116;BME280;74211;52.234;9.860;2024-02-04T01:09:30;101316.88;;;8.85;79.03
84116;BME280;74211;52.234;9.860;2024-02-04T01:12:00;101320.59;;;8.83;78.80
84116;BME280;74211;52.234;9.860;2024-02-04T01:14:30;101320.28;;;8.86;78.92
84116;BME280;74211;52.234;9.860;2024-02-04T01:17:00;101299.13;;;8.64;78.95
84116;BME280;74211;52.234;9.860;2024-02-04T01:19:30;101309.22;;;8.67;78.97
84116;BME280;74211;52.234;9.860;2024-02-04T01:22:00;101335.88;;;8.78;79.51
84116;BME280;74211;52.234;9.860;2024-02-04T01:24:32;101339.63;;;8.83;79.71
84116;BME280;74211;52.234;9.860;2024-02-04T01:27:03;101325.66;;;8.84;79.88
84116;BME280;74211;52.234;9.860;2024-02-04T01:29:34;101330.53;;;8.87;79.88
84116;BME280;74211;52.234;9.860;2024-02-04T01:32:05;101338.19;;;8.89;80.01
84116;BME280;74211;52.234;9.860;2024-02-04T01:34:35;101337.22;;;8.98;80.08
84116;BME280;74211;52.234;9.860;2024-02-04T01:37:05;101343.72;;;9.02;80.11
84116;BME280;74211;52.234;9.860;2024-02-04T01:39:37;101341.09;;;9.10;79.62
84116;BME280;74211;52.234;9.860;2024-02-04T01:42:07;101336.56;;;9.12;79.63
84116;BME280;74211;52.234;9.860;2024-02-04T01:44:37;101343.69;;;9.10;79.69
84116;BME280;74211;52.234;9.860;2024-02-04T01:47:07;101346.16;;;9.20;79.39
84116;BME280;74211;52.234;9.860;2024-02-04T01:49:38;101337.88;;;9.24;78.95
84116;BME280;74211;52.234;9.860;2024-02-04T01:52:08;101330.22;;;9.23;78.86
84116;BME280;74211;52.234;9.860;2024-02-04T01:54:41;101337.19;;;9.30;78.75
84116;BME280;74211;52.234;9.860;2024-02-04T01:57:12;101321.25;;;9.33;78.14
84116;BME280;74211;52.234;9.860;2024-02-04T01:59:44;101333.63;;;9.40;78.27
84116;BME280;74211;52.234;9.860;2024-02-04T02:02:15;101331.84;;;9.40;78.37
84116;BME280;74211;52.234;9.860;2024-02-04T02:04:46;101327.44;;;9.41;78.27
84116;BME280;74211;52.234;9.860;2024-02-04T02:07:16;101318.81;;;9.40;78.46
84116;BME280;74211;52.234;9.860;2024-02-04T02:09:51;101318.50;;;9.35;79.01
84116;BME280;74211;52.234;9.860;2024-02-04T02:12:24;101315.38;;;9.31;79.05
84116;BME280;74211;52.234;9.860;2024-02-04T02:14:59;101314.41;;;9.41;79.38
84116;BME280;74211;52.234;9.860;2024-02-04T02:17:34;101314.91;;;9.44;79.44
84116;BME280;74211;52.234;9.860;2024-02-04T02:20:12;101308.22;;;9.42;79.58
84116;BME280;74211;52.234;9.860;2024-02-04T02:22:49;101299.13;;;9.46;79.52
84116;BME280;74211;52.234;9.860;2024-02-04T02:25:24;101291.31;;;9.46;79.78
84116;BME280;74211;52.234;9.860;2024-02-04T02:27:54;101293.88;;;9.54;79.17
84116;BME280;74211;52.234;9.860;2024-02-04T02:30:22;101289.81;;;9.51;79.32
84116;BME280;74211;52.234;9.860;2024-02-04T02:32:52;101282.97;;;9.50;79.59
84116;BME280;74211;52.234;9.860;2024-02-04T02:35:22;101288.50;;;9.55;79.41
84116;BME280;74211;52.234;9.860;2024-02-04T02:37:59;101285.72;;;9.57;79.64
84116;BME280;74211;52.234;9.860;2024-02-04T02:40:38;101282.47;;;9.55;79.88
84116;BME280;74211;52.234;9.860;2024-02-04T02:43:10;101288.03;;;9.52;79.84
84116;BME280;74211;52.234;9.860;2024-02-04T02:45:42;101282.16;;;9.58;79.45
84116;BME280;74211;52.234;9.860;2024-02-04T02:48:13;101276.94;;;9.58;79.55
84116;BME280;74211;52.234;9.860;2024-02-04T02:50:43;101281.19;;;9.59;79.58
84116;BME280;74211;52.234;9.860;2024-02-04T02:53:13;101281.50;;;9.56;79.87
84116;BME280;74211;52.234;9.860;2024-02-04T02:55:48;101275.31;;;9.57;79.86
84116;BME280;74211;52.234;9.860;2024-02-04T02:58:18;101272.88;;;9.55;79.89
84116;BME280;74211;52.234;9.860;2024-02-04T03:00:49;101275.00;;;9.52;80.07
84116;BME280;74211;52.234;9.860;2024-02-04T03:03:19;101275.97;;;9.51;80.16
84116;BME280;74211;52.234;9.860;2024-02-04T03:05:49;101269.94;;;9.50;80.36
84116;BME280;74211;52.234;9.860;2024-02-04T03:08:19;101268.81;;;9.53;79.99
84116;BME280;74211;52.234;9.860;2024-02-04T03:10:52;101265.06;;;9.55;80.40
84116;BME280;74211;52.234;9.860;2024-02-04T03:13:22;101253.69;;;9.48;80.63
84116;BME280;74211;52.234;9.860;2024-02-04T03:15:52;101261.16;;;9.51;80.51
84116;BME280;74211;52.234;9.860;2024-02-04T03:18:22;101265.88;;;9.48;80.65
84116;BME280;74211;52.234;9.860;2024-02-04T03:20:53;101254.50;;;9.49;80.14
84116;BME280;74211;52.234;9.860;2024-02-04T03:23:23;101266.22;;;9.53;80.03
84116;BME280;74211;52.234;9.860;2024-02-04T03:25:55;101258.06;;;9.56;80.07
84116;BME280;74211;52.234;9.860;2024-02-04T03:28:25;101253.03;;;9.54;79.80
84116;BME280;74211;52.234;9.860;2024-02-04T03:30:55;101253.84;;;9.55;80.18
84116;BME280;74211;52.234;9.860;2024-02-04T03:33:26;101251.22;;;9.55;80.30
84116;BME280;74211;52.234;9.860;2024-02-04T03:35:56;101252.84;;;9.56;79.95
84116;BME280;74211;52.234;9.860;2024-02-04T03:38:25;101242.75;;;9.53;80.21
84116;BME280;74211;52.234;9.860;2024-02-04T03:40:58;101242.75;;;9.53;80.08
84116;BME280;74211;52.234;9.860;2024-02-04T03:43:28;101229.25;;;9.57;80.34
84116;BME280;74211;52.234;9.860;2024-02-04T03:45:58;101240.66;;;9.56;80.28
84116;BME280;74211;52.234;9.860;2024-02-04T03:48:29;101256.44;;;9.55;80.79
84116;BME280;74211;52.234;9.860;2024-02-04T03:51:01;101247.66;;;9.56;80.61
84116;BME280;74211;52.234;9.860;2024-02-04T03:53:31;101247.16;;;9.60;80.41
84116;BME280;74211;52.234;9.860;2024-02-04T03:56:04;101253.34;;;9.59;80.67
84116;BME280;74211;52.234;9.860;2024-02-04T03:58:34;101247.97;;;9.61;80.62
84116;BME280;74211;52.234;9.860;2024-02-04T04:01:04;101253.16;;;9.61;80.72
84116;BME280;74211;52.234;9.860;2024-02-04T04:03:34;101245.34;;;9.61;80.42
84116;BME280;74211;52.234;9.860;2024-02-04T04:06:05;101238.19;;;9.63;80.21
84116;BME280;74211;52.234;9.860;2024-02-04T04:08:36;101234.25;;;9.67;79.91
84116;BME280;74211;52.234;9.860;2024-02-04T04:11:10;101235.06;;;9.67;79.88
84116;BME280;74211;52.234;9.860;2024-02-04T04:13:40;101226.31;;;9.60;80.11
84116;BME280;74211;52.234;9.860;2024-02-04T04:16:10;101219.97;;;9.63;79.85
84116;BME280;74211;52.234;9.860;2024-02-04T04:18:40;101222.06;;;9.59;79.68
84116;BME280;74211;52.234;9.860;2024-02-04T04:21:10;101232.34;;;9.61;80.21
84116;BME280;74211;52.234;9.860;2024-02-04T04:23:40;101225.66;;;9.58;80.17
84116;BME280;74211;52.234;9.860;2024-02-04T04:26:12;101223.56;;;9.54;80.20
84116;BME280;74211;52.234;9.860;2024-02-04T04:28:42;101221.75;;;9.54;80.49
84116;BME280;74211;52.234;9.860;2024-02-04T04:31:12;101225.50;;;9.52;80.18
84116;BME280;74211;52.234;9.860;2024-02-04T04:33:42;101226.31;;;9.52;80.17
84116;BME280;74211;52.234;9.860;2024-02-04T04:36:12;101225.19;;;9.55;80.39
84116;BME280;74211;52.234;9.860;2024-02-04T04:38:42;101231.69;;;9.59;80.31
84116;BME280;74211;52.234;9.860;2024-02-04T04:41:15;101224.03;;;9.57;79.93
84116;BME280;74211;52.234;9.860;2024-02-04T04:43:45;101224.88;;;9.50;80.15
84116;BME280;74211;52.234;9.860;2024-02-04T04:46:15;101216.25;;;9.49;79.75
84116;BME280;74211;52.234;9.860;2024-02-04T04:48:45;101216.88;;;9.51;79.79
84116;BME280;74211;52.234;9.860;2024-02-04T04:51:15;101214.28;;;9.51;79.21
84116;BME280;74211;52.234;9.860;2024-02-04T04:53:45;101221.59;;;9.56;79.01
84116;BME280;74211;52.234;9.860;2024-02-04T04:56:17;101224.03;;;9.57;79.38
84116;BME280;74211;52.234;9.860;2024-02-04T04:58:47;101234.13;;;9.60;79.23
84116;BME280;74211;52.234;9.860;2024-02-04T05:01:17;101231.69;;;9.51;79.43
84116;BME280;74211;52.234;9.860;2024-02-04T05:03:47;101226.47;;;9.59;79.37
84116;BME280;74211;52.234;9.860;2024-02-04T05:06:18;101224.69;;;9.59;79.70
84116;BME280;74211;52.234;9.860;2024-02-04T05:08:48;101236.09;;;9.58;79.63
84116;BME280;74211;52.234;9.860;2024-02-04T05:11:20;101226.63;;;9.57;78.90
84116;BME280;74211;52.234;9.860;2024-02-04T05:13:50;101236.09;;;9.58;78.86
84116;BME280;74211;52.234;9.860;2024-02-04T05:16:20;101228.09;;;9.60;78.61
84116;BME280;74211;52.234;9.860;2024-02-04T05:18:50;101237.22;;;9.56;77.69
84116;BME280;74211;52.234;9.860;2024-02-04T05:21:20;101230.88;;;9.58;77.03
84116;BME280;74211;52.234;9.860;2024-02-04T05:23:50;101234.31;;;9.51;77.04
84116;BME280;74211;52.234;9.860;2024-02-04T05:26:22;101249.94;;;9.51;76.92
84116;BME280;74211;52.234;9.860;2024-02-04T05:28:52;101250.56;;;9.53;76.91
84116;BME280;74211;52.234;9.860;2024-02-04T05:31:22;101265.56;;;9.51;76.81
84116;BME280;74211;52.234;9.860;2024-02-04T05:33:52;101245.06;;;9.48;76.69
84116;BME280;74211;52.234;9.860;2024-02-04T05:36:22;101237.75;;;9.43;76.60
84116;BME280;74211;52.234;9.860;2024-02-04T05:38:52;101217.91;;;9.34;76.79
84116;BME280;74211;52.234;9.860;2024-02-04T05:41:25;101239.72;;;9.33;77.35
84116;BME280;74211;52.234;9.860;2024-02-04T05:43:54;101225.25;;;9.30;77.82
84116;BME280;74211;52.234;9.860;2024-02-04T05:46:25;101221.00;;;9.29;77.57
84116;BME280;74211;52.234;9.860;2024-02-04T05:48:55;101202.94;;;9.36;77.20
84116;BME280;74211;52.234;9.860;2024-02-04T05:51:25;101209.63;;;9.38;76.75
84116;BME280;74211;52.234;9.860;2024-02-04T05:53:55;101212.53;;;9.35;77.10
84116;BME280;74211;52.234;9.860;2024-02-04T05:56:28;101213.84;;;9.31;76.87
84116;BME280;74211;52.234;9.860;2024-02-04T05:58:57;101213.53;;;9.34;76.86
84116;BME280;74211;52.234;9.860;2024-02-04T06:01:27;101206.34;;;9.36;76.70
84116;BME280;74211;52.234;9.860;2024-02-04T06:03:58;101211.25;;;9.40;76.58
84116;BME280;74211;52.234;9.860;2024-02-04T06:06:30;101201.31;;;9.43;76.81
84116;BME280;74211;52.234;9.860;2024-02-04T06:09:00;101202.72;;;9.54;75.57
84116;BME280;74211;52.234;9.860;2024-02-04T06:11:33;101191.31;;;9.55;75.48
84116;BME280;74211;52.234;9.860;2024-02-04T06:14:03;101201.25;;;9.51;74.47
84116;BME280;74211;52.234;9.860;2024-02-04T06:16:32;101197.69;;;9.52;74.45
84116;BME280;74211;52.234;9.860;2024-02-04T06:19:03;101187.25;;;9.52;73.93
84116;BME280;74211;52.234;9.860;2024-02-04T06:21:36;101188.72;;;9.55;72.95
84116;BME280;74211;52.234;9.860;2024-02-04T06:24:06;101183.03;;;9.51;72.86
84116;BME280;74211;52.234;9.860;2024-02-04T06:26:40;101189.22;;;9.50;72.42
84116;BME280;74211;52.234;9.860;2024-02-04T06:29:10;101183.84;;;9.52;72.38
84116;BME280;74211;52.234;9.860;2024-02-04T06:31:44;101183.84;;;9.52;72.36
84116;BME280;74211;52.234;9.860;2024-02-04T06:34:14;101182.22;;;9.51;72.47
84116;BME280;74211;52.234;9.860;2024-02-04T06:36:44;101180.59;;;9.50;72.61
84116;BME280;74211;52.234;9.860;2024-02-04T06:39:14;101188.41;;;9.50;72.70
84116;BME280;74211;52.234;9.860;2024-02-04T06:41:47;101174.13;;;9.46;73.38
84116;BME280;74211;52.234;9.860;2024-02-04T06:44:17;101163.06;;;9.44;73.89
84116;BME280;74211;52.234;9.860;2024-02-04T06:46:47;101159.81;;;9.42;74.58
84116;BME280;74211;52.234;9.860;2024-02-04T06:49:17;101160.72;;;9.49;74.01
84116;BME280;74211;52.234;9.860;2024-02-04T06:51:47;101161.38;;;9.51;73.99
84116;BME280;74211;52.234;9.860;2024-02-04T06:54:23;101161.56;;;9.49;73.70
84116;BME280;74211;52.234;9.860;2024-02-04T06:56:56;101165.44;;;9.53;73.95
84116;BME280;74211;52.234;9.860;2024-02-04T06:59:26;101156.81;;;9.53;73.57
84116;BME280;74211;52.234;9.860;2024-02-04T07:01:56;101148.66;;;9.56;73.77
84116;BME280;74211;52.234;9.860;2024-02-04T07:04:26;101153.88;;;9.56;73.87
84116;BME280;74211;52.234;9.860;2024-02-04T07:06:56;101148.66;;;9.56;73.72
84116;BME280;74211;52.234;9.860;2024-02-04T07:09:26;101148.03;;;9.54;73.37
84116;BME280;74211;52.234;9.860;2024-02-04T07:11:58;101153.22;;;9.54;73.50
84116;BME280;74211;52.234;9.860;2024-02-04T07:14:28;101132.41;;;9.54;73.53
84116;BME280;74211;52.234;9.860;2024-02-04T07:16:58;101129.47;;;9.57;72.76
84116;BME280;74211;52.234;9.860;2024-02-04T07:19:28;101129.47;;;9.57;72.42
84116;BME280;74211;52.234;9.860;2024-02-04T07:21:58;101133.38;;;9.53;72.67
84116;BME280;74211;52.234;9.860;2024-02-04T07:24:28;101120.69;;;9.50;72.48
84116;BME280;74211;52.234;9.860;2024-02-04T07:27:01;101139.91;;;9.49;72.94
84116;BME280;74211;52.234;9.860;2024-02-04T07:29:31;101145.91;;;9.49;72.33
84116;BME280;74211;52.234;9.860;2024-02-04T07:32:04;101141.34;;;9.51;71.77
84116;BME280;74211;52.234;9.860;2024-02-04T07:34:34;101122.97;;;9.53;71.84
84116;BME280;74211;52.234;9.860;2024-02-04T07:37:05;101131.09;;;9.58;71.66
84116;BME280;74211;52.234;9.860;2024-02-04T07:39:35;101136.28;;;9.58;71.73
84116;BME280;74211;52.234;9.860;2024-02-04T07:42:07;101145.09;;;9.57;72.05
84116;BME280;74211;52.234;9.860;2024-02-04T07:44:37;101148.34;;;9.59;71.85
84116;BME280;74211;52.234;9.860;2024-02-04T07:47:07;101134.81;;;9.63;71.77
84116;BME280;74211;52.234;9.860;2024-02-04T07:49:37;101157.88;;;9.66;71.90
84116;BME280;74211;52.234;9.860;2024-02-04T07:52:07;101132.31;;;9.70;71.80
84116;BME280;74211;52.234;9.860;2024-02-04T07:54:37;101131.66;;;9.68;71.98
84116;BME280;74211;52.234;9.860;2024-02-04T07:57:09;101125.31;;;9.70;71.45
84116;BME280;74211;52.234;9.860;2024-02-04T07:59:40;101131.00;;;9.74;71.51
84116;BME280;74211;52.234;9.860;2024-02-04T08:02:10;101140.13;;;9.70;71.29
84116;BME280;74211;52.234;9.860;2024-02-04T08:04:40;101128.91;;;9.69;71.79
84116;BME280;74211;52.234;9.860;2024-02-04T08:07:10;101126.78;;;9.65;72.04
84116;BME280;74211;52.234;9.860;2024-02-04T08:09:40;101133.81;;;9.64;71.97
84116;BME280;74211;52.234;9.860;2024-02-04T08:12:13;101124.38;;;9.63;71.35
84116;BME280;74211;52.234;9.860;2024-02-04T08:14:42;101127.97;;;9.62;71.32
84116;BME280;74211;52.234;9.860;2024-02-04T08:17:12;101128.78;;;9.63;71.23
84116;BME280;74211;52.234;9.860;2024-02-04T08:19:42;101121.47;;;9.58;70.82
84116;BME280;74211;52.234;9.860;2024-02-04T08:22:12;101134.00;;;9.63;70.54
84116;BME280;74211;52.234;9.860;2024-02-04T08:24:44;101128.16;;;9.61;70.25
84116;BME280;74211;52.234;9.860;2024-02-04T08:27:17;101135.97;;;9.61;70.29
84116;BME280;74211;52.234;9.860;2024-02-04T08:29:47;101133.69;;;9.58;70.58
84116;BME280;74211;52.234;9.860;2024-02-04T08:32:20;101132.56;;;9.52;70.28
84116;BME280;74211;52.234;9.860;2024-02-04T08:34:49;101119.72;;;9.51;69.65
84116;BME280;74211;52.234;9.860;2024-02-04T08:37:19;101125.41;;;9.54;69.59
84116;BME280;74211;52.234;9.860;2024-02-04T08:39:54;101125.72;;;9.51;69.94
84116;BME280;74211;52.234;9.860;2024-02-04T08:42:26;101125.91;;;9.50;70.24
84116;BME280;74211;52.234;9.860;2024-02-04T08:44:57;101125.25;;;9.48;69.71
84116;BME280;74211;52.234;9.860;2024-02-04T08:47:26;101130.81;;;9.45;69.89
84116;BME280;74211;52.234;9.860;2024-02-04T08:49:56;101126.06;;;9.48;69.64
84116;BME280;74211;52.234;9.860;2024-02-04T08:52:28;101132.09;;;9.49;69.43
84116;BME280;74211;52.234;9.860;2024-02-04T08:54:58;101132.41;;;9.54;69.96
84116;BME280;74211;52.234;9.860;2024-02-04T08:57:33;101136.63;;;9.55;69.65
84116;BME280;74211;52.234;9.860;2024-02-04T09:00:05;101138.59;;;9.53;69.84
84116;BME280;74211;52.234;9.860;2024-02-04T09:02:35;101141.34;;;9.51;69.54
84116;BME280;74211;52.234;9.860;2024-02-04T09:05:06;101135.31;;;9.59;69.00
84116;BME280;74211;52.234;9.860;2024-02-04T09:07:36;101135.16;;;9.60;68.79
84116;BME280;74211;52.234;9.860;2024-02-04T09:10:06;101138.41;;;9.54;68.65
84116;BME280;74211;52.234;9.860;2024-02-04T09:12:39;101129.31;;;9.50;68.69
84116;BME280;74211;52.234;9.860;2024-02-04T09:15:10;101139.53;;;9.60;68.54
84116;BME280;74211;52.234;9.860;2024-02-04T09:17:40;101138.56;;;9.61;68.33
84116;BME280;74211;52.234;9.860;2024-02-04T09:20:11;101141.97;;;9.61;68.27
84116;BME280;74211;52.234;9.860;2024-02-04T09:22:42;101144.75;;;9.60;68.52
84116;BME280;74211;52.234;9.860;2024-02-04T09:25:12;101153.03;;;9.63;68.42
84116;BME280;74211;52.234;9.860;2024-02-04T09:27:45;101156.16;;;9.59;68.03
84116;BME280;74211;52.234;9.860;2024-02-04T09:30:15;101137.91;;;9.59;67.81
84116;BME280;74211;52.234;9.860;2024-02-04T09:32:45;101140.69;;;9.57;67.93
84116;BME280;74211;52.234;9.860;2024-02-04T09:35:16;101141.84;;;9.55;68.08
84116;BME280;74211;52.234;9.860;2024-02-04T09:37:46;101132.72;;;9.51;68.36
84116;BME280;74211;52.234;9.860;2024-02-04T09:40:16;101131.75;;;9.52;67.96
84116;BME280;74211;52.234;9.860;2024-02-04T09:42:49;101134.53;;;9.50;67.99
84116;BME280;74211;52.234;9.860;2024-02-04T09:45:22;101129.50;;;9.49;67.44
84116;BME280;74211;52.234;9.860;2024-02-04T09:47:53;101145.91;;;9.57;67.35
84116;BME280;74211;52.234;9.860;2024-02-04T09:50:24;101149.16;;;9.51;67.32
84116;BME280;74211;52.234;9.860;2024-02-04T09:52:58;101133.94;;;9.40;67.54
84116;BME280;74211;52.234;9.860;2024-02-04T09:55:29;101131.09;;;9.58;67.38
84116;BME280;74211;52.234;9.860;2024-02-04T09:58:03;101136.63;;;9.55;67.67
84116;BME280;74211;52.234;9.860;2024-02-04T10:00:34;101134.00;;;9.63;67.71
84116;BME280;74211;52.234;9.860;2024-02-04T10:03:05;101140.13;;;9.70;66.60
84116;BME280;74211;52.234;9.860;2024-02-04T10:05:35;101142.38;;;9.73;66.63
84116;BME280;74211;52.234;9.860;2024-02-04T10:08:06;101143.84;;;9.76;66.19
84116;BME280;74211;52.234;9.860;2024-02-04T10:10:36;101150.22;;;9.73;66.33
84116;BME280;74211;52.234;9.860;2024-02-04T10:13:09;101159.69;;;9.66;66.42
84116;BME280;74211;52.234;9.860;2024-02-04T10:15:39;101160.38;;;9.60;65.98
84116;BME280;74211;52.234;9.860;2024-02-04T10:18:09;101158.06;;;9.65;66.21
84116;BME280;74211;52.234;9.860;2024-02-04T10:20:39;101143.22;;;9.65;66.43
84116;BME280;74211;52.234;9.860;2024-02-04T10:23:09;101150.53;;;9.70;66.88
84116;BME280;74211;52.234;9.860;2024-02-04T10:25:39;101156.56;;;9.70;66.96
84116;BME280;74211;52.234;9.860;2024-02-04T10:28:11;101153.47;;;9.75;67.10
84116;BME280;74211;52.234;9.860;2024-02-04T10:30:42;101134.09;;;9.69;66.29
84116;BME280;74211;52.234;9.860;2024-02-04T10:33:12;101145.47;;;9.77;66.56
84116;BME280;74211;52.234;9.860;2024-02-04T10:35:42;101149.47;;;9.87;66.35
84116;BME280;74211;52.234;9.860;2024-02-04T10:38:12;101150.84;;;9.75;66.31
84116;BME280;74211;52.234;9.860;2024-02-04T10:40:42;101143.28;;;9.88;66.37
84116;BME280;74211;52.234;9.860;2024-02-04T10:43:16;101148.81;;;9.85;65.80
84116;BME280;74211;52.234;9.860;2024-02-04T10:45:47;101141.31;;;9.90;66.23
84116;BME280;74211;52.234;9.860;2024-02-04T10:48:19;101137.88;;;9.90;65.29
84116;BME280;74211;52.234;9.860;2024-02-04T10:50:51;101142.81;;;9.85;65.50
84116;BME280;74211;52.234;9.860;2024-02-04T10:53:26;101129.50;;;9.80;65.68
84116;BME280;74211;52.234;9.860;2024-02-04T10:55:58;101132.03;;;9.88;65.83
84116;BME280;74211;52.234;9.860;2024-02-04T10:58:34;101121.78;;;9.86;66.12
84116;BME280;74211;52.234;9.860;2024-02-04T11:01:05;101126.78;;;9.96;66.21
84116;BME280;74211;52.234;9.860;2024-02-04T11:03:36;101105.88;;;10.04;66.06
84116;BME280;74211;52.234;9.860;2024-02-04T11:06:07;101114.91;;;9.93;66.13
84116;BME280;74211;52.234;9.860;2024-02-04T11:08:38;101114.25;;;9.91;66.13
84116;BME280;74211;52.234;9.860;2024-02-04T11:11:09;101115.47;;;10.03;65.91
84116;BME280;74211;52.234;9.860;2024-02-04T11:13:43;101107.59;;;10.20;65.70
84116;BME280;74211;52.234;9.860;2024-02-04T11:16:20;101107.50;;;10.28;65.62
84116;BME280;74211;52.234;9.860;2024-02-04T11:19:11;101094.63;;;10.26;64.27
84116;BME280;74211;52.234;9.860;2024-02-04T11:22:11;101097.41;;;10.25;64.80
84116;BME280;74211;52.234;9.860;2024-02-04T11:25:02;101096.19;;;10.13;64.96
84116;BME280;74211;52.234;9.860;2024-02-04T11:27:40;101077.38;;;10.02;65.61
84116;BME280;74211;52.234;9.860;2024-02-04T11:30:15;101086.19;;;10.01;65.58
84116;BME280;74211;52.234;9.860;2024-02-04T11:32:45;101088.97;;;10.00;65.76
84116;BME280;74211;52.234;9.860;2024-02-04T11:35:15;101092.09;;;9.95;65.66
84116;BME280;74211;52.234;9.860;2024-02-04T11:37:46;101102.44;;;10.03;65.32
84116;BME280;74211;52.234;9.860;2024-02-04T11:40:16;101098.63;;;10.14;64.70
84116;BME280;74211;52.234;9.860;2024-02-04T11:42:49;101086.81;;;10.03;63.57
84116;BME280;74211;52.234;9.860;2024-02-04T11:45:26;101088.91;;;10.08;64.40
84116;BME280;74211;52.234;9.860;2024-02-04T11:48:00;101093.63;;;10.04;64.31
84116;BME280;74211;52.234;9.860;2024-02-04T11:50:30;101105.13;;;9.95;64.67
84116;BME280;74211;52.234;9.860;2024-02-04T11:53:04;101104.94;;;9.97;64.44
84116;BME280;74211;52.234;9.860;2024-02-04T11:55:34;101080.84;;;9.95;64.25
84116;BME280;74211;52.234;9.860;2024-02-04T11:58:11;101076.38;;;10.03;64.23
84116;BME280;74211;52.234;9.860;2024-02-04T12:00:45;101101.84;;;10.01;63.57
84116;BME280;74211;52.234;9.860;2024-02-04T12:03:16;101071.28;;;10.10;63.41
84116;BME280;74211;52.234;9.860;2024-02-04T12:05:46;101085.00;;;10.04;63.43
84116;BME280;74211;52.234;9.860;2024-02-04T12:08:16;101086.88;;;9.95;63.42
84116;BME280;74211;52.234;9.860;2024-02-04T12:10:47;101086.88;;;9.95;63.46
84116;BME280;74211;52.234;9.860;2024-02-04T12:13:19;101077.16;;;9.89;63.52
84116;BME280;74211;52.234;9.860;2024-02-04T12:15:51;101113.16;;;9.86;63.78
84116;BME280;74211;52.234;9.860;2024-02-04T12:18:21;101091.31;;;9.87;63.42
84116;BME280;74211;52.234;9.860;2024-02-04T12:20:51;101080.38;;;9.91;63.55
84116;BME280;74211;52.234;9.860;2024-02-04T12:23:21;101066.63;;;9.83;63.19
84116;BME280;74211;52.234;9.860;2024-02-04T12:25:53;101071.59;;;9.92;63.55
84116;BME280;74211;52.234;9.860;2024-02-04T12:28:23;101063.13;;;9.90;64.08
84116;BME280;74211;52.234;9.860;2024-02-04T12:30:56;101065.56;;;9.92;64.03
84116;BME280;74211;52.234;9.860;2024-02-04T12:33:26;101062.66;;;9.87;64.64
84116;BME280;74211;52.234;9.860;2024-02-04T12:35:56;101061.75;;;9.80;65.13
84116;BME280;74211;52.234;9.860;2024-02-04T12:38:27;101061.84;;;9.86;65.21
84116;BME280;74211;52.234;9.860;2024-02-04T12:41:01;101063.78;;;9.92;65.50
84116;BME280;74211;52.234;9.860;2024-02-04T12:43:31;101060.53;;;9.90;65.92
84116;BME280;74211;52.234;9.860;2024-02-04T12:46:05;101057.41;;;9.95;65.65
84116;BME280;74211;52.234;9.860;2024-02-04T12:48:36;101056.94;;;9.91;65.38
84116;BME280;74211;52.234;9.860;2024-02-04T12:51:07;101065.22;;;9.95;65.60
84116;BME280;74211;52.234;9.860;2024-02-04T12:53:38;101055.19;;;9.84;65.88
84116;BME280;74211;52.234;9.860;2024-02-04T12:56:08;101062.84;;;9.85;66.28
84116;BME280;74211;52.234;9.860;2024-02-04T12:58:42;101044.97;;;9.82;66.77
84116;BME280;74211;52.234;9.860;2024-02-04T13:01:15;101040.44;;;9.76;66.78
84116;BME280;74211;52.234;9.860;2024-02-04T13:03:45;101040.44;;;9.76;67.38
84116;BME280;74211;52.234;9.860;2024-02-04T13:06:17;101049.88;;;9.77;67.42
84116;BME280;74211;52.234;9.860;2024-02-04T13:08:47;101044.19;;;9.73;67.42
84116;BME280;74211;52.234;9.860;2024-02-04T13:11:19;101039.28;;;9.79;67.77
84116;BME280;74211;52.234;9.860;2024-02-04T13:13:49;101028.75;;;9.72;67.93
84116;BME280;74211;52.234;9.860;2024-02-04T13:16:22;101033.97;;;9.72;68.01
84116;BME280;74211;52.234;9.860;2024-02-04T13:18:52;101018.97;;;9.74;68.14
84116;BME280;74211;52.234;9.860;2024-02-04T13:21:22;101017.00;;;9.76;67.92